Douglas, North Dakota
Current Conditions -  °F | °C
As of 11:30 PM on Tuesday 25 Nov 2014 (Local Time) from KMOT Reporting Station
Haze Haze  
Wind Chill: -8°   Ceiling: Unl
Heat Index:   Visibility: 6mi
Dew Point:   Wind: 7mph
Humidity: 84%   Direction: 310°NW
Pressure: 30.17"   Gusts: NA
Location:  47.86°N, 101.5°W
Report Text: KMOT 260530Z 31006KT 6SM BR SCT022 M16/M18 A3017 RMK AO2 T11561178
Loading
Personal Weather Stations






























Interactive Weather Map New forecast layout! Learn more

10-Day Weather Forecast

Advertisements
Track Severe Weather on mobile